Time;durP1;ratioP1;P1;durP2;ratioP2;P2;SDS_P1;SDS_P2;PMS_P1;PMS_P2;Temp;Humidity;BMP_temperature;BMP_pressure;BME280_temperature;BME280_humidity;BME280_pressure;Samples;Min_cycle;Max_cycle;Signal;HPM_P1;HPM_P2
2022/12/28 00:01:28;;;;;;;3.33;2.75;;;;;;;4.68;89.29;101586.56;4977012;28;20188;-74
2022/12/28 00:04:01;;;;;;;3.80;2.67;;;;;;;4.63;89.42;101589.69;4976701;28;20624;-73
2022/12/28 00:06:31;;;;;;;14.95;3.00;;;;;;;4.67;89.08;101583.03;4977312;28;20795;-73
2022/12/28 00:09:00;;;;;;;2.83;2.33;;;;;;;4.70;89.06;101582.75;4978964;28;20571;-73
2022/12/28 00:11:30;;;;;;;2.97;2.47;;;;;;;4.79;88.78;101589.91;4976343;28;20199;-75
2022/12/28 00:14:02;;;;;;;3.85;3.53;;;;;;;4.76;88.78;101581.31;4978683;28;20254;-75
2022/12/28 00:16:32;;;;;;;4.32;2.70;;;;;;;4.77;88.55;101575.81;4978989;28;20221;-73
2022/12/28 00:19:04;;;;;;;4.30;2.92;;;;;;;4.84;88.29;101575.22;4974729;28;20207;-73
2022/12/28 00:21:33;;;;;;;3.95;2.65;;;;;;;4.81;88.26;101568.31;4978449;28;20672;-74
2022/12/28 00:24:03;;;;;;;3.22;2.92;;;;;;;4.82;88.50;101570.84;4978318;28;20215;-74
2022/12/28 00:26:34;;;;;;;3.78;2.55;;;;;;;4.85;87.48;101558.13;4978317;28;20274;-74
2022/12/28 00:29:05;;;;;;;3.47;2.45;;;;;;;4.86;87.54;101559.81;4959393;28;20273;-74
2022/12/28 00:31:34;;;;;;;3.15;2.05;;;;;;;4.85;87.47;101556.28;4976119;28;20738;-72
2022/12/28 00:34:04;;;;;;;5.32;3.55;;;;;;;4.85;87.68;101547.38;4959703;28;20258;-73
2022/12/28 00:36:34;;;;;;;13.38;3.22;;;;;;;4.95;87.07;101549.03;4975806;28;20282;-74
2022/12/28 00:39:23;;;;;;;3.50;2.58;;;;;;;5.01;86.58;101552.94;4958278;28;20305;-73
2022/12/28 00:41:54;;;;;;;3.67;2.50;;;;;;;4.99;86.98;101562.97;4975768;28;20205;-74
2022/12/28 00:44:24;;;;;;;2.58;2.35;;;;;;;4.91;86.62;101568.25;4975688;28;20679;-73
2022/12/28 00:46:53;;;;;;;4.22;3.28;;;;;;;4.98;86.41;101564.84;4958152;28;20270;-73
2022/12/28 00:49:22;;;;;;;6.47;2.83;;;;;;;5.03;86.60;101556.34;4975676;28;20187;-73
2022/12/28 00:51:51;;;;;;;9.95;3.88;;;;;;;5.05;85.68;101539.09;4972778;28;20326;-73
2022/12/28 00:54:20;;;;;;;8.30;2.97;;;;;;;5.12;86.47;101534.81;4975391;28;20187;-73
2022/12/28 00:56:49;;;;;;;7.47;2.78;;;;;;;5.03;86.15;101535.72;4963086;28;20211;-74
2022/12/28 00:59:18;;;;;;;8.73;2.55;;;;;;;5.16;85.22;101533.53;4958031;28;20648;-75
2022/12/28 01:01:49;;;;;;;6.28;2.85;;;;;;;5.12;85.11;101537.50;4975645;28;20191;-74
2022/12/28 01:04:18;;;;;;;3.60;2.63;;;;;;;5.14;85.24;101535.50;4975744;28;20201;-75
2022/12/28 01:06:48;;;;;;;4.50;3.17;;;;;;;5.17;84.91;101545.09;4959048;28;20223;-73
2022/12/28 01:09:17;;;;;;;6.30;3.80;;;;;;;5.27;84.46;101543.19;4958780;28;20254;-73
2022/12/28 01:11:47;;;;;;;20.65;2.95;;;;;;;5.22;84.84;101543.66;4976017;28;20188;-73
2022/12/28 01:14:16;;;;;;;3.25;2.42;;;;;;;5.17;84.81;101545.09;4958447;28;20724;-74
2022/12/28 01:16:49;;;;;;;4.82;2.45;;;;;;;5.18;84.48;101541.44;4975445;28;20219;-74
2022/12/28 01:19:22;;;;;;;4.50;2.40;;;;;;;5.29;84.63;101529.59;4975747;28;20175;-75
2022/12/28 01:21:52;;;;;;;4.50;1.88;;;;;;;5.19;84.32;101525.16;4973846;28;20203;-74
2022/12/28 01:24:21;;;;;;;3.58;2.70;;;;;;;5.22;83.99;101524.03;4974774;28;20195;-73
2022/12/28 01:26:51;;;;;;;2.35;1.95;;;;;;;5.19;84.14;101518.94;4974419;28;20208;-72
2022/12/28 01:29:23;;;;;;;3.20;2.25;;;;;;;5.29;84.35;101514.34;4975365;28;20290;-73
2022/12/28 01:31:53;;;;;;;9.38;2.25;;;;;;;5.20;84.20;101515.25;4958514;28;20204;-75
2022/12/28 01:34:22;;;;;;;3.50;2.97;;;;;;;5.20;84.05;101507.22;4977669;28;20755;-73
2022/12/28 01:36:51;;;;;;;6.25;2.92;;;;;;;5.21;84.13;101500.84;4957434;28;20231;-72
2022/12/28 01:39:20;;;;;;;2.33;1.67;;;;;;;5.30;83.79;101494.56;4957489;28;20218;-73
2022/12/28 01:41:49;;;;;;;3.35;2.10;;;;;;;5.17;84.15;101494.13;4976265;28;20187;-74
2022/12/28 01:44:49;;;;;;;2.70;2.50;;;;;;;5.20;84.46;101491.13;4977752;28;20219;-73
2022/12/28 01:47:23;;;;;;;2.67;1.85;;;;;;;5.18;84.11;101485.88;4974827;28;20742;-73
2022/12/28 01:50:00;;;;;;;3.45;2.65;;;;;;;5.19;83.84;101486.75;4968947;28;20218;-73
2022/12/28 01:52:35;;;;;;;2.95;2.50;;;;;;;5.15;84.34;101474.63;4959248;28;20197;-73
2022/12/28 01:55:09;;;;;;;7.63;2.85;;;;;;;5.37;83.33;101462.59;4974143;28;20735;-74
2022/12/28 01:57:42;;;;;;;3.10;2.50;;;;;;;5.28;83.66;101460.84;4974504;28;20262;-73
2022/12/28 02:00:14;;;;;;;4.15;2.15;;;;;;;5.26;83.95;101455.63;4956898;28;20204;-73
2022/12/28 02:02:52;;;;;;;10.77;3.40;;;;;;;5.13;83.74;101447.13;4956929;28;20207;-73
2022/12/28 02:05:26;;;;;;;4.47;2.90;;;;;;;5.14;83.89;101446.09;4974253;28;20691;-73
2022/12/28 02:08:02;;;;;;;2.85;1.90;;;;;;;5.11;83.55;101438.38;4974519;28;20183;-74
2022/12/28 02:10:35;;;;;;;6.90;2.97;;;;;;;4.86;84.77;101436.44;4941514;29;20258;-73
2022/12/28 02:13:14;;;;;;;3.90;2.08;;;;;;;4.81;84.67;101435.06;4970508;28;20700;-75
2022/12/28 02:15:44;;;;;;;4.90;2.20;;;;;;;4.73;85.64;101432.31;4974731;28;20212;-74
2022/12/28 02:18:18;;;;;;;4.45;2.15;;;;;;;4.76;85.10;101418.59;4957301;28;20294;-74
2022/12/28 02:21:15;;;;;;;5.28;2.45;;;;;;;4.62;85.79;101403.03;4956722;28;20214;-75
2022/12/28 02:24:32;;;;;;;4.45;3.05;;;;;;;4.60;86.00;101405.00;4963932;28;20226;-73
2022/12/28 02:27:07;;;;;;;4.15;2.30;;;;;;;4.56;86.13;101390.22;4974152;28;20311;-73
2022/12/28 02:30:01;;;;;;;4.68;2.65;;;;;;;4.57;86.54;101391.91;4974277;28;20660;-74
2022/12/28 02:32:44;;;;;;;2.17;1.90;;;;;;;4.55;86.16;101385.84;4974104;28;20195;-73
2022/12/28 02:35:19;;;;;;;7.57;2.95;;;;;;;4.52;86.23;101378.13;4964814;28;20234;-74
2022/12/28 02:37:54;;;;;;;5.90;2.50;;;;;;;4.50;86.01;101366.72;4959493;28;20250;-74
2022/12/28 02:40:27;;;;;;;3.42;2.55;;;;;;;4.49;86.35;101367.72;4978564;28;20190;-73
2022/12/28 02:42:58;;;;;;;6.88;3.45;;;;;;;4.50;86.29;101360.53;4977701;28;20671;-74
2022/12/28 02:51:39;;;;;;;3.22;2.50;;;;;;;4.48;86.06;101355.31;4977904;28;20211;-74
2022/12/28 02:57:47;;;;;;;4.55;2.83;;;;;;;4.36;86.49;101337.75;4974895;28;20624;-73
2022/12/28 03:00:22;;;;;;;7.00;3.10;;;;;;;4.35;86.80;101336.94;4961505;28;20207;-73
2022/12/28 03:03:05;;;;;;;3.30;2.38;;;;;;;4.41;86.15;101324.72;4978242;28;20266;-74
2022/12/28 03:08:45;;;;;;;5.97;2.80;;;;;;;4.33;86.04;101311.25;4932246;28;20228;-73
2022/12/28 03:11:19;;;;;;;4.95;3.05;;;;;;;4.31;86.38;101305.19;4974597;28;20566;-74
2022/12/28 03:13:56;;;;;;;5.10;2.83;;;;;;;4.41;85.69;101295.25;4963107;28;20582;-73
2022/12/28 03:16:32;;;;;;;3.80;2.40;;;;;;;4.35;86.17;101291.38;4963496;28;20233;-73
2022/12/28 03:33:14;;;;;;;3.90;2.90;;;;;;;4.35;85.79;101263.72;4977061;28;20671;-74
2022/12/28 03:38:55;;;;;;;5.10;3.05;;;;;;;4.41;84.90;101260.41;5337178;23;20269;-70
2022/12/28 03:41:31;;;;;;;5.57;2.70;;;;;;;4.40;84.82;101250.72;4954624;29;20672;-72
2022/12/28 03:44:17;;;;;;;4.32;2.60;;;;;;;4.38;84.89;101250.03;4968035;28;20195;-70
2022/12/28 03:46:52;;;;;;;11.25;3.17;;;;;;;4.41;84.92;101255.06;4939918;29;20704;-71
2022/12/28 03:49:23;;;;;;;10.70;2.90;;;;;;;4.36;85.12;101230.56;4949207;28;20277;-71
2022/12/28 03:51:55;;;;;;;8.32;3.45;;;;;;;4.37;85.23;101216.19;4956429;28;20206;-71
2022/12/28 03:54:26;;;;;;;6.80;3.17;;;;;;;4.32;85.08;101223.84;4939560;29;20216;-71
2022/12/28 03:56:55;;;;;;;3.38;2.92;;;;;;;4.40;84.89;101223.91;4942315;28;20750;-71
2022/12/28 03:59:29;;;;;;;4.63;2.97;;;;;;;4.30;84.80;101217.81;4955444;29;20188;-71
2022/12/28 04:02:00;;;;;;;6.40;2.75;;;;;;;4.27;85.20;101218.09;4955378;29;20630;-71
2022/12/28 04:04:31;;;;;;;3.10;2.80;;;;;;;4.32;85.14;101213.97;4945206;28;20206;-71
2022/12/28 04:07:01;;;;;;;9.98;3.17;;;;;;;4.30;85.20;101215.97;4953948;28;20603;-71
2022/12/28 04:09:33;;;;;;;3.90;3.15;;;;;;;4.22;85.27;101212.34;4938963;29;20279;-71
2022/12/28 04:12:02;;;;;;;7.80;2.55;;;;;;;4.24;85.29;101205.84;4952135;29;20668;-71
2022/12/28 04:14:51;;;;;;;2.55;2.28;;;;;;;4.20;85.45;101211.69;4955976;28;20279;-70
2022/12/28 04:17:20;;;;;;;4.03;2.75;;;;;;;4.16;85.44;101202.28;4956499;28;20208;-71
2022/12/28 04:19:49;;;;;;;4.15;2.55;;;;;;;4.20;85.21;101200.97;4960737;29;20227;-71
2022/12/28 04:22:18;;;;;;;3.47;3.03;;;;;;;4.22;85.41;101180.19;4957683;29;20268;-71
2022/12/28 04:24:48;;;;;;;3.17;2.83;;;;;;;4.12;85.30;101179.44;4949707;29;20200;-71
2022/12/28 04:27:17;;;;;;;3.70;2.60;;;;;;;4.13;85.81;101170.41;4947465;29;20760;-72
2022/12/28 04:29:46;;;;;;;12.20;2.75;;;;;;;4.11;85.44;101161.72;4946842;29;20210;-72
2022/12/28 04:32:20;;;;;;;5.07;2.80;;;;;;;4.06;85.87;101164.00;4951564;29;20208;-72
2022/12/28 04:34:48;;;;;;;3.88;2.30;;;;;;;4.23;85.00;101160.47;4960945;28;20188;-71
2022/12/28 04:37:19;;;;;;;6.72;2.40;;;;;;;4.10;85.43;101160.03;4956450;28;20774;-71
2022/12/28 04:39:49;;;;;;;4.68;2.20;;;;;;;4.17;84.91;101161.06;4945915;28;20211;-71
2022/12/28 04:42:25;;;;;;;2.83;2.28;;;;;;;4.16;85.17;101156.72;4965781;28;20286;-71
2022/12/28 04:44:54;;;;;;;3.90;2.63;;;;;;;4.13;85.28;101149.00;4957926;28;20684;-71
2022/12/28 04:47:23;;;;;;;4.88;1.95;;;;;;;4.18;85.06;101146.69;4963289;28;20219;-71
2022/12/28 04:49:52;;;;;;;7.63;2.60;;;;;;;4.14;85.11;101148.00;4956760;29;20227;-72
2022/12/28 04:52:21;;;;;;;2.10;1.77;;;;;;;4.11;85.27;101142.97;4968834;28;20191;-71
2022/12/28 04:54:51;;;;;;;6.72;2.13;;;;;;;4.09;85.31;101142.25;4960776;28;20652;-71
2022/12/28 04:57:20;;;;;;;3.13;2.70;;;;;;;4.08;84.89;101135.22;4964997;28;20401;-71
2022/12/28 04:59:49;;;;;;;4.90;1.85;;;;;;;4.08;85.43;101151.28;4957124;28;20677;-71
2022/12/28 05:02:18;;;;;;;9.82;2.55;;;;;;;4.13;85.22;101152.50;4956345;29;20196;-71
2022/12/28 05:04:47;;;;;;;5.75;2.65;;;;;;;4.12;85.49;101147.28;4956394;29;20688;-71
2022/12/28 05:07:16;;;;;;;5.07;1.80;;;;;;;4.15;85.17;101142.50;4955923;28;20247;-70
2022/12/28 05:09:45;;;;;;;2.10;1.90;;;;;;;4.10;85.17;101143.94;4960223;28;20695;-71
2022/12/28 05:12:15;;;;;;;6.88;2.10;;;;;;;4.06;85.39;101145.25;4964731;28;20216;-71
2022/12/28 05:14:44;;;;;;;4.43;2.05;;;;;;;4.13;84.99;101138.28;4957511;29;20214;-71
2022/12/28 05:17:14;;;;;;;11.02;2.05;;;;;;;4.11;85.44;101140.28;4957297;28;20287;-70
2022/12/28 05:19:43;;;;;;;6.65;2.08;;;;;;;4.22;84.72;101142.69;4959198;28;20191;-71
2022/12/28 05:22:14;;;;;;;3.47;2.45;;;;;;;4.11;84.64;101140.28;4958270;29;20200;-71
2022/12/28 05:24:43;;;;;;;3.80;2.88;;;;;;;4.08;85.21;101127.19;4970490;28;20725;-71
2022/12/28 05:27:12;;;;;;;5.50;2.40;;;;;;;4.27;84.51;101124.31;4972404;28;20238;-71
2022/12/28 05:29:42;;;;;;;4.70;1.75;;;;;;;4.25;84.29;101121.81;4980006;28;20212;-72
2022/12/28 05:32:11;;;;;;;4.03;2.30;;;;;;;4.17;84.48;101123.56;4973280;28;20188;-71
2022/12/28 05:34:41;;;;;;;3.47;1.60;;;;;;;4.19;84.77;101129.63;4958349;28;20196;-71
2022/12/28 05:37:10;;;;;;;2.65;1.83;;;;;;;4.22;84.50;101126.63;4958854;28;20208;-70
2022/12/28 05:39:44;;;;;;;1.90;1.50;;;;;;;4.21;84.88;101119.63;4959567;29;20183;-70
2022/12/28 05:42:13;;;;;;;1.85;1.35;;;;;;;4.23;84.24;101113.09;4974708;28;20191;-70
2022/12/28 05:44:44;;;;;;;4.93;2.05;;;;;;;4.19;84.45;101100.16;4982708;28;20211;-72
2022/12/28 05:47:13;;;;;;;3.28;1.70;;;;;;;4.28;83.96;101097.38;4968052;28;20291;-71
2022/12/28 05:49:42;;;;;;;2.65;1.88;;;;;;;4.23;84.29;101090.81;4963422;28;20283;-70
2022/12/28 05:52:11;;;;;;;4.43;2.15;;;;;;;4.22;84.57;101089.97;4963854;29;20202;-70
2022/12/28 05:54:40;;;;;;;5.68;1.80;;;;;;;4.23;84.50;101085.47;4965529;28;20196;-71
2022/12/28 05:57:09;;;;;;;8.57;1.90;;;;;;;4.15;84.60;101078.22;4965645;28;20219;-70
2022/12/28 05:59:38;;;;;;;2.00;1.73;;;;;;;4.28;83.95;101077.78;4977315;28;20250;-72
2022/12/28 06:02:08;;;;;;;4.25;1.95;;;;;;;4.14;84.79;101081.03;4975006;28;20200;-72
2022/12/28 06:04:37;;;;;;;3.00;1.95;;;;;;;4.29;84.32;101066.09;4963890;29;20184;-71
2022/12/28 06:07:06;;;;;;;3.60;1.95;;;;;;;4.21;84.51;101076.75;4966298;28;20601;-71
2022/12/28 06:09:35;;;;;;;8.23;2.25;;;;;;;4.27;84.07;101066.22;4964826;29;20215;-71
2022/12/28 06:12:05;;;;;;;2.05;1.60;;;;;;;4.28;84.02;101062.56;4971089;28;20251;-71
2022/12/28 06:14:34;;;;;;;5.18;2.20;;;;;;;4.39;83.44;101066.81;4967366;29;20198;-72
2022/12/28 06:17:03;;;;;;;9.30;2.13;;;;;;;4.42;83.05;101060.28;4965016;28;20212;-71
2022/12/28 06:19:34;;;;;;;4.13;1.55;;;;;;;4.30;84.06;101046.34;4959876;28;20183;-69
2022/12/28 06:22:03;;;;;;;6.88;1.58;;;;;;;4.33;83.82;101043.34;4959063;28;20212;-71
2022/12/28 06:24:32;;;;;;;2.75;2.05;;;;;;;4.38;83.88;101038.34;4960450;28;20188;-73
2022/12/28 06:27:01;;;;;;;2.42;1.83;;;;;;;4.36;83.76;101034.97;4977903;28;20209;-69
2022/12/28 06:29:30;;;;;;;6.88;1.45;;;;;;;4.57;82.65;101038.13;4976575;28;20176;-71
2022/12/28 06:32:00;;;;;;;5.03;1.73;;;;;;;4.47;83.26;101033.88;4966623;28;20278;-72
2022/12/28 06:34:29;;;;;;;2.75;1.65;;;;;;;4.54;83.05;101029.56;4976068;28;20202;-72
2022/12/28 06:36:59;;;;;;;2.08;1.83;;;;;;;4.57;82.49;101030.06;4958578;29;20644;-71
2022/12/28 06:39:29;;;;;;;2.67;1.92;;;;;;;4.67;82.59;101019.22;4967082;28;20203;-71
2022/12/28 06:41:58;;;;;;;5.80;1.65;;;;;;;4.69;82.60;101015.41;4977897;28;20226;-70
2022/12/28 06:44:27;;;;;;;5.05;1.85;;;;;;;4.70;82.78;101019.75;4975305;28;20692;-71
2022/12/28 06:46:56;;;;;;;2.45;1.35;;;;;;;4.65;84.32;101011.34;4965063;28;20251;-71
2022/12/28 06:49:25;;;;;;;4.57;1.65;;;;;;;4.52;85.90;101012.78;4958118;29;20571;-71
2022/12/28 06:51:54;;;;;;;2.78;1.70;;;;;;;4.63;86.48;100999.94;4962296;28;20200;-73
2022/12/28 06:54:24;;;;;;;6.78;1.65;;;;;;;4.64;86.69;101022.25;4969001;28;20195;-70
2022/12/28 06:56:54;;;;;;;2.25;1.50;;;;;;;4.60;88.06;101008.28;4982205;28;20228;-71
2022/12/28 06:59:23;;;;;;;2.60;2.35;;;;;;;4.60;88.25;100999.44;4972246;28;20619;-71
2022/12/28 07:01:52;;;;;;;9.57;2.20;;;;;;;4.57;88.87;100992.53;4964347;28;20261;-71
2022/12/28 07:04:21;;;;;;;3.50;2.00;;;;;;;4.60;89.14;100992.22;4982206;28;20234;-70
2022/12/28 07:06:50;;;;;;;4.10;2.28;;;;;;;4.64;89.26;100990.91;4981572;28;20223;-69
2022/12/28 07:09:19;;;;;;;4.15;1.95;;;;;;;4.58;88.60;100982.66;4974277;28;20624;-71
2022/12/28 07:11:50;;;;;;;8.48;3.03;;;;;;;4.57;89.38;100980.97;4957973;29;20192;-71
2022/12/28 07:14:19;;;;;;;4.32;3.10;;;;;;;4.50;89.30;100974.59;4957951;29;20267;-71
2022/12/28 07:16:48;;;;;;;3.05;1.52;;;;;;;4.64;90.14;100979.34;4957919;28;20216;-71
2022/12/28 07:19:18;;;;;;;1.95;1.30;;;;;;;4.55;90.07;100970.41;4974761;28;20198;-71
2022/12/28 07:21:49;;;;;;;6.45;2.10;;;;;;;4.56;90.10;100965.91;4960266;28;20234;-71
2022/12/28 07:24:18;;;;;;;8.00;2.05;;;;;;;4.59;90.20;100969.13;4974683;28;20246;-71
2022/12/28 07:26:49;;;;;;;2.40;2.00;;;;;;;4.70;90.11;100959.91;4960163;28;20220;-70
2022/12/28 07:29:18;;;;;;;5.10;2.00;;;;;;;4.64;89.89;100969.47;4957510;29;20215;-70
2022/12/28 07:31:46;;;;;;;2.25;1.75;;;;;;;4.75;90.04;100962.94;4964048;28;20200;-71
2022/12/28 07:34:16;;;;;;;4.35;1.83;;;;;;;4.78;90.77;100963.50;4957837;28;20184;-72
2022/12/28 07:36:45;;;;;;;2.75;1.42;;;;;;;4.84;90.20;100956.63;4957576;29;20235;-71
2022/12/28 07:39:14;;;;;;;3.20;1.80;;;;;;;4.78;90.60;100954.59;4957806;28;20200;-71
2022/12/28 07:41:43;;;;;;;7.22;2.80;;;;;;;4.88;90.37;100957.97;4958107;28;20231;-71
2022/12/28 07:44:13;;;;;;;3.83;1.60;;;;;;;4.85;90.30;100946.72;4956955;29;20196;-71
2022/12/28 07:46:42;;;;;;;3.58;1.73;;;;;;;4.70;91.04;100933.94;4957068;29;20211;-70
2022/12/28 07:49:11;;;;;;;6.45;2.33;;;;;;;4.85;90.56;100939.53;4956932;28;20219;-72
2022/12/28 07:51:40;;;;;;;2.30;1.60;;;;;;;4.81;90.54;100941.69;4956935;29;20196;-71
2022/12/28 07:54:09;;;;;;;5.28;2.08;;;;;;;4.92;90.60;100937.03;4957002;28;20199;-70
2022/12/28 07:56:38;;;;;;;5.15;1.80;;;;;;;4.95;90.25;100931.31;4956975;29;20212;-70
2022/12/28 07:59:06;;;;;;;3.58;2.15;;;;;;;4.92;90.98;100932.50;4959967;28;20219;-71
2022/12/28 08:01:37;;;;;;;8.82;1.80;;;;;;;4.90;91.30;100933.66;4961827;28;20200;-71
2022/12/28 08:04:09;;;;;;;3.08;1.70;;;;;;;4.90;91.72;100915.72;4942570;29;20551;-72
2022/12/28 08:06:40;;;;;;;4.38;2.10;;;;;;;4.89;91.67;100922.09;4959132;29;20256;-71
2022/12/28 08:09:11;;;;;;;4.15;2.63;;;;;;;4.97;91.60;100915.94;4952463;28;20676;-72
2022/12/28 08:11:41;;;;;;;5.15;2.80;;;;;;;4.94;92.08;100908.22;4972108;28;20195;-71
2022/12/28 08:14:11;;;;;;;3.95;2.30;;;;;;;5.05;91.50;100913.25;4978312;28;20176;-71
2022/12/28 08:16:43;;;;;;;2.90;2.60;;;;;;;5.05;91.42;100915.94;4970247;28;20318;-71
2022/12/28 08:19:12;;;;;;;5.35;1.85;;;;;;;5.05;92.18;100911.41;4964929;28;20192;-71
2022/12/28 08:21:43;;;;;;;4.78;2.75;;;;;;;5.18;92.31;100913.63;4959132;29;20196;-71
2022/12/28 08:24:15;;;;;;;3.38;2.60;;;;;;;5.21;92.01;100915.94;4959215;29;20181;-71
2022/12/28 08:26:45;;;;;;;1.83;1.73;;;;;;;5.30;91.62;100914.09;4958667;28;20279;-72
2022/12/28 08:29:16;;;;;;;2.45;2.25;;;;;;;5.22;92.33;100902.38;4973613;28;20576;-72
2022/12/28 08:31:47;;;;;;;7.55;2.75;;;;;;;5.31;91.92;100894.31;4977328;28;20274;-71
2022/12/28 08:34:18;;;;;;;4.40;2.40;;;;;;;5.36;91.81;100891.97;4976221;28;20194;-71
2022/12/28 08:36:47;;;;;;;5.10;2.53;;;;;;;5.36;92.19;100887.44;4976248;28;20302;-70
2022/12/28 08:39:16;;;;;;;4.35;2.25;;;;;;;5.48;91.78;100885.25;4977126;28;20188;-71
2022/12/28 08:41:45;;;;;;;2.40;1.73;;;;;;;5.38;91.47;100879.22;4976663;28;20195;-71
2022/12/28 08:44:14;;;;;;;5.97;2.22;;;;;;;5.47;91.17;100884.41;4959751;28;20191;-71
2022/12/28 08:46:43;;;;;;;3.50;1.88;;;;;;;5.54;90.60;100882.72;4955857;28;20586;-70
2022/12/28 08:49:14;;;;;;;3.55;1.60;;;;;;;5.53;90.46;100873.00;4965852;28;20298;-71
2022/12/28 08:51:43;;;;;;;5.15;2.70;;;;;;;5.64;90.63;100879.84;4968939;28;20195;-71
2022/12/28 08:54:13;;;;;;;5.10;2.53;;;;;;;5.72;90.02;100870.94;4972295;28;20578;-69
2022/12/28 08:56:44;;;;;;;5.25;3.67;;;;;;;5.75;89.00;100876.81;4966182;28;20246;-71
2022/12/28 08:59:15;;;;;;;5.82;2.95;;;;;;;5.85;88.57;100871.25;4968849;28;20222;-71
2022/12/28 09:01:45;;;;;;;5.70;2.45;;;;;;;5.68;89.26;100867.75;4961821;28;20195;-71
2022/12/28 09:04:18;;;;;;;5.35;2.33;;;;;;;5.69;89.58;100872.97;4974699;28;20190;-71
2022/12/28 09:06:48;;;;;;;3.17;2.40;;;;;;;5.83;88.45;100860.69;4957226;28;20239;-70
2022/12/28 09:09:19;;;;;;;3.60;1.83;;;;;;;5.89;88.55;100860.03;4962009;28;20291;-70
2022/12/28 09:11:49;;;;;;;5.90;2.00;;;;;;;6.02;88.04;100864.84;4956628;29;20672;-70
2022/12/28 09:14:18;;;;;;;4.10;2.05;;;;;;;5.98;88.14;100863.53;4956287;29;20223;-70
2022/12/28 09:16:53;;;;;;;4.07;1.98;;;;;;;6.02;88.21;100859.47;4950018;29;20238;-71
2022/12/28 09:19:24;;;;;;;3.13;2.30;;;;;;;5.96;88.99;100862.84;4937350;29;20169;-70
2022/12/28 09:21:54;;;;;;;3.38;2.50;;;;;;;5.97;88.80;100854.63;4950131;29;20188;-70
2022/12/28 09:24:23;;;;;;;4.22;2.03;;;;;;;6.05;88.64;100851.09;4955596;28;20188;-70
2022/12/28 09:26:54;;;;;;;10.63;2.42;;;;;;;6.05;88.30;100841.16;4974825;28;20235;-71
2022/12/28 09:29:23;;;;;;;4.15;2.00;;;;;;;6.12;87.86;100844.00;4955621;29;20196;-70
2022/12/28 09:31:52;;;;;;;4.57;2.20;;;;;;;6.13;87.76;100831.41;4970071;28;20227;-72
2022/12/28 09:34:23;;;;;;;3.35;2.47;;;;;;;6.20;87.78;100829.66;4975356;28;20218;-71
2022/12/28 09:37:07;;;;;;;5.43;2.50;;;;;;;6.28;87.18;100825.13;4965812;28;20704;-70
2022/12/28 09:39:36;;;;;;;3.40;1.98;;;;;;;6.27;87.56;100817.22;5135476;23;20231;-71
2022/12/28 09:42:12;;;;;;;3.53;2.22;;;;;;;6.29;87.35;100818.72;4985377;28;20218;-72
2022/12/28 09:44:54;;;;;;;1.88;1.63;;;;;;;6.38;86.41;100816.81;4976689;28;20194;-72
2022/12/28 09:47:37;;;;;;;2.63;1.90;;;;;;;6.37;86.46;100810.63;4979109;28;20210;-73
2022/12/28 09:50:30;;;;;;;2.90;2.22;;;;;;;6.48;86.51;100814.75;4976227;28;20203;-72
2022/12/28 09:53:30;;;;;;;4.22;2.70;;;;;;;6.52;85.93;100805.31;4958736;28;20211;-70
2022/12/28 09:56:03;;;;;;;4.95;2.17;;;;;;;6.58;86.06;100803.78;4960525;29;20191;-72
2022/12/28 09:58:36;;;;;;;4.93;2.30;;;;;;;6.68;85.32;100799.81;4964399;28;20215;-71
2022/12/28 10:01:12;;;;;;;8.23;3.08;;;;;;;6.74;85.60;100804.47;4963504;28;20200;-70
2022/12/28 10:03:44;;;;;;;3.95;2.28;;;;;;;6.87;85.19;100793.13;4960698;29;20668;-70
2022/12/28 10:06:16;;;;;;;2.35;1.92;;;;;;;6.98;83.99;100800.75;4960850;28;20291;-72
2022/12/28 10:08:48;;;;;;;3.55;2.30;;;;;;;7.02;84.15;100796.69;4961028;28;20672;-70
2022/12/28 10:11:21;;;;;;;4.45;1.83;;;;;;;6.86;84.72;100786.91;4965740;28;20275;-72
2022/12/28 10:13:55;;;;;;;3.53;2.20;;;;;;;6.98;84.91;100790.00;4973649;28;20196;-70
2022/12/28 10:16:28;;;;;;;3.25;2.55;;;;;;;7.02;83.99;100785.09;4948333;29;20199;-71
2022/12/28 10:18:57;;;;;;;2.45;1.77;;;;;;;6.88;84.49;100784.03;4960405;28;20216;-71
2022/12/28 10:21:31;;;;;;;3.45;2.60;;;;;;;6.82;84.95;100774.00;4960731;29;20371;-71
2022/12/28 10:24:05;;;;;;;4.95;2.90;;;;;;;6.91;85.37;100781.81;4960267;28;20202;-70
2022/12/28 10:26:56;;;;;;;2.92;1.77;;;;;;;7.11;85.22;100781.31;4960679;29;20207;-70
2022/12/28 10:29:26;;;;;;;2.05;1.73;;;;;;;7.22;84.55;100780.84;4960702;28;20231;-72
2022/12/28 10:32:00;;;;;;;3.25;2.05;;;;;;;7.25;85.03;100775.13;4960853;28;20188;-71
2022/12/28 10:34:31;;;;;;;4.53;2.05;;;;;;;7.20;85.06;100770.28;4940433;29;20184;-71
2022/12/28 10:37:13;;;;;;;2.28;1.90;;;;;;;7.32;86.35;100766.13;4942045;29;20199;-71
2022/12/28 10:39:51;;;;;;;8.60;4.13;;;;;;;7.37;87.08;100763.72;4949566;28;20230;-71
2022/12/28 10:42:25;;;;;;;4.88;3.15;;;;;;;7.53;86.59;100757.31;4960294;29;20198;-69
2022/12/28 10:45:01;;;;;;;3.35;2.80;;;;;;;7.36;86.37;100745.88;4960138;28;20278;-71
2022/12/28 10:47:35;;;;;;;3.85;2.70;;;;;;;7.47;86.21;100752.66;4967264;28;20192;-71
2022/12/28 10:50:05;;;;;;;2.78;2.58;;;;;;;7.32;86.91;100749.13;4959975;28;20211;-71
2022/12/28 10:52:59;;;;;;;4.50;2.30;;;;;;;7.34;86.88;100749.78;4959899;28;20270;-70
2022/12/28 10:55:30;;;;;;;3.72;2.95;;;;;;;7.36;87.09;100745.88;4960545;29;20196;-71
2022/12/28 10:58:19;;;;;;;7.63;2.78;;;;;;;7.32;87.20;100739.19;4963272;28;20216;-70
2022/12/28 11:01:02;;;;;;;3.88;3.40;;;;;;;7.60;86.19;100742.06;4951477;29;20275;-71
2022/12/28 11:03:34;;;;;;;6.95;3.42;;;;;;;8.00;85.48;100745.28;4962166;28;20200;-72
2022/12/28 11:06:11;;;;;;;6.68;3.42;;;;;;;8.03;84.54;100737.69;4956982;28;20192;-70
2022/12/28 11:08:43;;;;;;;5.95;3.13;;;;;;;8.00;84.54;100735.34;4967418;28;20216;-70
2022/12/28 11:11:20;;;;;;;3.83;3.47;;;;;;;8.14;84.56;100739.84;4956729;29;20212;-71
2022/12/28 11:13:55;;;;;;;4.85;3.25;;;;;;;8.13;84.49;100732.78;4956989;29;20200;-72
2022/12/28 11:16:24;;;;;;;4.88;3.25;;;;;;;8.27;83.33;100734.63;4962912;28;20291;-71
2022/12/28 11:18:53;;;;;;;2.65;2.45;;;;;;;8.09;83.69;100728.81;4960699;28;20220;-72
2022/12/28 11:21:23;;;;;;;8.02;3.15;;;;;;;8.21;83.18;100730.00;4959596;28;20215;-71
2022/12/28 11:23:53;;;;;;;2.90;1.92;;;;;;;8.19;83.79;100723.09;4957683;28;20220;-71
2022/12/28 11:26:23;;;;;;;6.10;2.92;;;;;;;8.27;82.99;100715.75;4956865;29;20226;-71
2022/12/28 11:28:53;;;;;;;3.80;3.13;;;;;;;8.22;83.36;100715.50;4956746;28;20219;-72
2022/12/28 11:31:27;;;;;;;3.10;2.78;;;;;;;8.16;83.34;100713.56;4965934;28;20294;-70
2022/12/28 11:34:02;;;;;;;5.40;2.65;;;;;;;8.18;83.30;100714.19;4976452;28;20199;-71
2022/12/28 11:36:33;;;;;;;3.45;2.45;;;;;;;8.19;83.26;100710.47;4968020;28;20251;-72
2022/12/28 11:39:31;;;;;;;4.55;3.08;;;;;;;8.33;82.41;100710.66;4956284;28;20228;-71
2022/12/28 11:42:01;;;;;;;4.20;2.67;;;;;;;8.35;81.98;100697.81;4961261;28;20274;-71
2022/12/28 11:44:53;;;;;;;3.72;2.50;;;;;;;8.35;81.99;100693.25;4951089;29;20244;-71
2022/12/28 11:47:31;;;;;;;6.10;3.30;;;;;;;8.52;81.67;100693.84;4956466;29;20218;-70
2022/12/28 11:50:38;;;;;;;4.35;2.35;;;;;;;8.57;81.07;100694.06;4956102;29;20262;-71
2022/12/28 11:53:23;;;;;;;3.13;2.17;;;;;;;8.67;80.90;100690.00;4964943;28;20200;-70
2022/12/28 11:56:06;;;;;;;5.25;2.60;;;;;;;8.72;80.92;100690.25;4956420;29;20740;-71
2022/12/28 11:58:46;;;;;;;4.93;2.45;;;;;;;8.70;80.59;100686.09;4956229;28;20215;-72
2022/12/28 12:01:47;;;;;;;4.25;1.77;;;;;;;8.46;80.85;100673.03;4956179;29;20196;-71
2022/12/28 12:04:38;;;;;;;2.40;2.20;;;;;;;8.54;81.48;100670.19;4964367;28;20294;-71
2022/12/28 12:07:45;;;;;;;6.25;2.40;;;;;;;8.50;81.18;100674.31;4951809;29;20188;-71
2022/12/28 12:10:34;;;;;;;2.95;2.28;;;;;;;8.64;80.95;100665.28;4957274;28;20220;-71
2022/12/28 12:13:41;;;;;;;1.77;1.52;;;;;;;8.59;81.16;100662.34;4972872;28;20196;-71
2022/12/28 12:16:25;;;;;;;3.50;1.73;;;;;;;8.61;80.92;100666.53;4935677;29;20200;-71
2022/12/28 12:18:58;;;;;;;5.05;2.38;;;;;;;8.69;80.67;100660.16;4951327;29;20815;-71
2022/12/28 12:21:36;;;;;;;5.10;2.50;;;;;;;8.74;80.73;100660.41;4940741;29;20224;-72
2022/12/28 12:24:18;;;;;;;3.30;2.00;;;;;;;8.87;80.49;100655.09;4939758;29;20207;-71
2022/12/28 12:26:53;;;;;;;3.33;2.57;;;;;;;9.03;80.10;100649.41;4940364;29;20451;-72
2022/12/28 12:29:28;;;;;;;3.30;2.00;;;;;;;9.15;79.28;100642.41;4955785;29;20869;-71
2022/12/28 12:32:04;;;;;;;2.70;1.83;;;;;;;9.21;78.87;100642.63;4967918;28;20306;-71